sensor_id;sensor_type;location;lat;lon;timestamp;pressure;altitude;pressure_sealevel;temperature;humidity
75312;BME280;63906;55.686;37.532;2023-01-19T00:01:10;99165.03;;;0.93;84.78
75312;BME280;63906;55.686;37.532;2023-01-19T00:06:11;99139.53;;;0.98;84.24
75312;BME280;63906;55.686;37.532;2023-01-19T00:11:11;99162.44;;;1.12;84.30
75312;BME280;63906;55.686;37.532;2023-01-19T00:16:12;99167.06;;;1.08;84.52
75312;BME280;63906;55.686;37.532;2023-01-19T00:21:17;99177.31;;;1.00;85.02
75312;BME280;63906;55.686;37.532;2023-01-19T00:26:18;99149.03;;;1.17;84.03
75312;BME280;63906;55.686;37.532;2023-01-19T00:31:23;99108.75;;;0.85;84.67
75312;BME280;63906;55.686;37.532;2023-01-19T00:36:24;99164.63;;;0.97;84.33
75312;BME280;63906;55.686;37.532;2023-01-19T00:41:28;99084.25;;;0.60;84.04
75312;BME280;63906;55.686;37.532;2023-01-19T00:46:47;99115.56;;;0.86;84.44
75312;BME280;63906;55.686;37.532;2023-01-19T00:51:51;99121.63;;;1.04;84.27
75312;BME280;63906;55.686;37.532;2023-01-19T00:56:51;99134.47;;;1.06;83.97
75312;BME280;63906;55.686;37.532;2023-01-19T01:01:52;99134.91;;;1.01;83.31
75312;BME280;63906;55.686;37.532;2023-01-19T01:06:53;99181.38;;;1.13;83.94
75312;BME280;63906;55.686;37.532;2023-01-19T01:11:53;99145.22;;;1.11;84.07
75312;BME280;63906;55.686;37.532;2023-01-19T01:16:54;99138.38;;;1.20;84.14
75312;BME280;63906;55.686;37.532;2023-01-19T01:21:55;99149.38;;;0.94;84.80
75312;BME280;63906;55.686;37.532;2023-01-19T01:26:55;99120.97;;;1.12;84.20
75312;BME280;63906;55.686;37.532;2023-01-19T01:31:56;99143.06;;;1.06;84.28
75312;BME280;63906;55.686;37.532;2023-01-19T01:36:56;99149.88;;;1.07;84.30
75312;BME280;63906;55.686;37.532;2023-01-19T01:41:56;99145.22;;;1.11;84.92
75312;BME280;63906;55.686;37.532;2023-01-19T01:46:57;99177.44;;;0.99;84.47
75312;BME280;63906;55.686;37.532;2023-01-19T01:51:58;99174.34;;;1.32;84.64
75312;BME280;63906;55.686;37.532;2023-01-19T01:57:02;99150.19;;;0.85;84.82
75312;BME280;63906;55.686;37.532;2023-01-19T02:02:10;99138.34;;;0.83;84.94
75312;BME280;63906;55.686;37.532;2023-01-19T02:07:38;99129.50;;;0.66;85.78
75312;BME280;63906;55.686;37.532;2023-01-19T02:13:01;99100.75;;;0.69;85.48
75312;BME280;63906;55.686;37.532;2023-01-19T02:18:25;99120.63;;;0.78;85.05
75312;BME280;63906;55.686;37.532;2023-01-19T02:23:48;99139.22;;;1.11;85.28
75312;BME280;63906;55.686;37.532;2023-01-19T02:29:00;99145.00;;;0.95;85.22
75312;BME280;63906;55.686;37.532;2023-01-19T02:34:02;99162.19;;;0.96;85.65
75312;BME280;63906;55.686;37.532;2023-01-19T02:39:04;99151.97;;;0.94;86.04
75312;BME280;63906;55.686;37.532;2023-01-19T02:44:07;99159.75;;;0.94;86.34
75312;BME280;63906;55.686;37.532;2023-01-19T02:49:09;99124.06;;;0.69;86.71
75312;BME280;63906;55.686;37.532;2023-01-19T03:05:18;99152.81;;;0.75;85.77
75312;BME280;63906;55.686;37.532;2023-01-19T03:10:42;99111.72;;;1.00;85.84
75312;BME280;63906;55.686;37.532;2023-01-19T03:15:55;99157.81;;;0.96;85.14
75312;BME280;63906;55.686;37.532;2023-01-19T03:20:59;99136.97;;;0.78;85.16
75312;BME280;63906;55.686;37.532;2023-01-19T03:26:04;99179.47;;;1.15;85.74
75312;BME280;63906;55.686;37.532;2023-01-19T03:31:14;99172.81;;;1.02;85.75
75312;BME280;63906;55.686;37.532;2023-01-19T03:36:24;99199.28;;;0.96;84.69
75312;BME280;63906;55.686;37.532;2023-01-19T03:41:26;99174.47;;;0.74;85.03
75312;BME280;63906;55.686;37.532;2023-01-19T03:46:28;99197.09;;;1.01;85.00
75312;BME280;63906;55.686;37.532;2023-01-19T03:51:30;99182.50;;;1.00;84.94
75312;BME280;63906;55.686;37.532;2023-01-19T03:56:34;99217.41;;;0.96;85.12
75312;BME280;63906;55.686;37.532;2023-01-19T04:01:35;99202.97;;;0.84;85.44
75312;BME280;63906;55.686;37.532;2023-01-19T04:06:35;99229.81;;;1.02;86.14
75312;BME280;63906;55.686;37.532;2023-01-19T04:11:36;99256.28;;;1.06;85.62
75312;BME280;63906;55.686;37.532;2023-01-19T04:16:36;99256.00;;;0.99;85.34
75312;BME280;63906;55.686;37.532;2023-01-19T04:21:37;99263.22;;;1.05;85.62
75312;BME280;63906;55.686;37.532;2023-01-19T04:26:37;99266.66;;;1.06;85.62
75312;BME280;63906;55.686;37.532;2023-01-19T04:31:38;99267.28;;;1.18;85.22
75312;BME280;63906;55.686;37.532;2023-01-19T04:36:38;99244.53;;;1.12;85.44
75312;BME280;63906;55.686;37.532;2023-01-19T04:41:39;99247.47;;;1.36;85.79
75312;BME280;63906;55.686;37.532;2023-01-19T04:46:39;99248.03;;;1.30;85.23
75312;BME280;63906;55.686;37.532;2023-01-19T04:51:40;99227.91;;;1.04;85.63
75312;BME280;63906;55.686;37.532;2023-01-19T04:56:40;99236.34;;;1.26;85.88
75312;BME280;63906;55.686;37.532;2023-01-19T05:01:41;99222.28;;;1.19;85.47
75312;BME280;63906;55.686;37.532;2023-01-19T05:06:41;99248.44;;;1.35;86.25
75312;BME280;63906;55.686;37.532;2023-01-19T05:11:43;99282.28;;;1.43;85.91
75312;BME280;63906;55.686;37.532;2023-01-19T05:16:43;99264.66;;;1.56;86.55
75312;BME280;63906;55.686;37.532;2023-01-19T05:21:44;99263.44;;;1.41;86.01
75312;BME280;63906;55.686;37.532;2023-01-19T05:26:44;99274.22;;;1.46;85.99
75312;BME280;63906;55.686;37.532;2023-01-19T05:31:45;99286.34;;;1.55;86.06
75312;BME280;63906;55.686;37.532;2023-01-19T05:36:46;99297.69;;;1.45;86.19
75312;BME280;63906;55.686;37.532;2023-01-19T05:41:46;99288.25;;;1.53;86.28
75312;BME280;63906;55.686;37.532;2023-01-19T05:46:47;99306.25;;;1.65;86.29
75312;BME280;63906;55.686;37.532;2023-01-19T05:51:48;99291.66;;;1.54;85.81
75312;BME280;63906;55.686;37.532;2023-01-19T05:57:06;99297.28;;;1.49;85.93
75312;BME280;63906;55.686;37.532;2023-01-19T06:02:07;99323.34;;;1.57;85.94
75312;BME280;63906;55.686;37.532;2023-01-19T06:07:08;99273.16;;;1.29;85.70
75312;BME280;63906;55.686;37.532;2023-01-19T06:12:08;99314.44;;;1.70;86.16
75312;BME280;63906;55.686;37.532;2023-01-19T06:17:09;99304.78;;;1.52;86.28
75312;BME280;63906;55.686;37.532;2023-01-19T06:22:09;99371.38;;;1.81;86.41
75312;BME280;63906;55.686;37.532;2023-01-19T06:27:10;99376.81;;;1.87;85.96
75312;BME280;63906;55.686;37.532;2023-01-19T06:32:11;99358.59;;;1.97;86.03
75312;BME280;63906;55.686;37.532;2023-01-19T06:37:12;99375.69;;;2.00;86.33
75312;BME280;63906;55.686;37.532;2023-01-19T06:42:14;99354.31;;;2.15;86.54
75312;BME280;63906;55.686;37.532;2023-01-19T06:47:15;99361.69;;;2.20;85.76
75312;BME280;63906;55.686;37.532;2023-01-19T06:52:16;99354.66;;;1.93;86.50
75312;BME280;63906;55.686;37.532;2023-01-19T06:57:17;99384.13;;;2.11;86.40
75312;BME280;63906;55.686;37.532;2023-01-19T07:02:18;99387.13;;;2.07;85.57
75312;BME280;63906;55.686;37.532;2023-01-19T07:07:22;99390.09;;;2.22;86.33
75312;BME280;63906;55.686;37.532;2023-01-19T07:12:22;99388.47;;;2.11;86.17
75312;BME280;63906;55.686;37.532;2023-01-19T07:17:23;99359.81;;;2.03;86.23
75312;BME280;63906;55.686;37.532;2023-01-19T07:22:23;99379.19;;;2.08;86.21
75312;BME280;63906;55.686;37.532;2023-01-19T07:27:25;99410.13;;;2.39;86.63
75312;BME280;63906;55.686;37.532;2023-01-19T07:32:27;99376.94;;;2.23;86.04
75312;BME280;63906;55.686;37.532;2023-01-19T07:37:28;99414.41;;;2.21;85.94
75312;BME280;63906;55.686;37.532;2023-01-19T07:42:28;99426.44;;;2.22;85.74
75312;BME280;63906;55.686;37.532;2023-01-19T07:47:29;99446.88;;;2.44;86.14
75312;BME280;63906;55.686;37.532;2023-01-19T07:52:29;99427.97;;;2.52;85.85
75312;BME280;63906;55.686;37.532;2023-01-19T07:57:30;99428.94;;;2.13;85.60
75312;BME280;63906;55.686;37.532;2023-01-19T08:02:33;99464.66;;;2.49;86.12
75312;BME280;63906;55.686;37.532;2023-01-19T08:07:38;99470.16;;;2.26;85.95
75312;BME280;63906;55.686;37.532;2023-01-19T08:12:39;99459.63;;;2.75;85.75
75312;BME280;63906;55.686;37.532;2023-01-19T08:17:41;99479.13;;;2.51;85.15
75312;BME280;63906;55.686;37.532;2023-01-19T08:22:41;99505.66;;;2.55;85.13
75312;BME280;63906;55.686;37.532;2023-01-19T08:27:42;99516.53;;;2.68;85.57
75312;BME280;63906;55.686;37.532;2023-01-19T08:32:43;99504.63;;;2.75;85.85
75312;BME280;63906;55.686;37.532;2023-01-19T08:37:46;99513.81;;;2.69;85.56
75312;BME280;63906;55.686;37.532;2023-01-19T08:42:47;99506.72;;;2.52;84.77
75312;BME280;63906;55.686;37.532;2023-01-19T08:47:47;99515.97;;;2.74;85.07
75312;BME280;63906;55.686;37.532;2023-01-19T08:52:51;99491.94;;;2.62;85.37
75312;BME280;63906;55.686;37.532;2023-01-19T08:57:56;99500.41;;;2.64;85.76
75312;BME280;63906;55.686;37.532;2023-01-19T09:02:57;99500.72;;;2.61;84.79
75312;BME280;63906;55.686;37.532;2023-01-19T09:07:57;99503.22;;;2.43;85.25
75312;BME280;63906;55.686;37.532;2023-01-19T09:12:58;99441.09;;;2.13;85.96
75312;BME280;63906;55.686;37.532;2023-01-19T09:17:58;99491.69;;;2.56;85.62
75312;BME280;63906;55.686;37.532;2023-01-19T09:22:59;99489.03;;;2.65;85.37
75312;BME280;63906;55.686;37.532;2023-01-19T09:28:00;99470.00;;;2.75;85.41
75312;BME280;63906;55.686;37.532;2023-01-19T09:33:13;99448.44;;;2.64;84.87
75312;BME280;63906;55.686;37.532;2023-01-19T09:38:15;99473.50;;;2.56;84.79
75312;BME280;63906;55.686;37.532;2023-01-19T09:48:41;99498.53;;;2.94;84.95
75312;BME280;63906;55.686;37.532;2023-01-19T09:58:55;99486.25;;;2.49;85.65
75312;BME280;63906;55.686;37.532;2023-01-19T10:10:01;99497.84;;;2.92;85.33
75312;BME280;63906;55.686;37.532;2023-01-19T10:20:18;99509.97;;;3.01;84.64
75312;BME280;63906;55.686;37.532;2023-01-19T10:25:22;99499.41;;;2.75;84.97
75312;BME280;63906;55.686;37.532;2023-01-19T10:30:26;99489.91;;;2.93;84.50
75312;BME280;63906;55.686;37.532;2023-01-19T10:35:28;99457.59;;;2.96;85.40
75312;BME280;63906;55.686;37.532;2023-01-19T10:40:56;99488.78;;;2.96;83.77
75312;BME280;63906;55.686;37.532;2023-01-19T10:45:58;99509.00;;;3.02;84.73
75312;BME280;63906;55.686;37.532;2023-01-19T10:51:01;99476.53;;;2.51;84.56
75312;BME280;63906;55.686;37.532;2023-01-19T10:56:16;99508.31;;;2.73;84.56
75312;BME280;63906;55.686;37.532;2023-01-19T11:01:23;99506.22;;;2.86;84.82
75312;BME280;63906;55.686;37.532;2023-01-19T11:06:27;99510.84;;;2.92;83.83
75312;BME280;63906;55.686;37.532;2023-01-19T11:11:43;99509.41;;;2.80;84.22
75312;BME280;63906;55.686;37.532;2023-01-19T11:16:51;99504.56;;;2.48;84.12
75312;BME280;63906;55.686;37.532;2023-01-19T11:22:07;99499.69;;;2.25;84.72
75312;BME280;63906;55.686;37.532;2023-01-19T11:27:09;99501.84;;;2.49;85.02
75312;BME280;63906;55.686;37.532;2023-01-19T11:32:14;99522.06;;;2.36;84.53
75312;BME280;63906;55.686;37.532;2023-01-19T11:42:22;99527.56;;;2.23;85.98
75312;BME280;63906;55.686;37.532;2023-01-19T11:47:27;99500.78;;;2.23;85.13
75312;BME280;63906;55.686;37.532;2023-01-19T11:52:33;99519.09;;;2.31;85.52
75312;BME280;63906;55.686;37.532;2023-01-19T11:57:35;99538.66;;;2.25;85.78
75312;BME280;63906;55.686;37.532;2023-01-19T12:02:45;99554.50;;;2.12;85.87
75312;BME280;63906;55.686;37.532;2023-01-19T12:07:49;99522.09;;;2.16;85.44
75312;BME280;63906;55.686;37.532;2023-01-19T12:12:51;99555.47;;;2.11;85.45
75312;BME280;63906;55.686;37.532;2023-01-19T12:17:56;99575.94;;;2.34;85.24
75312;BME280;63906;55.686;37.532;2023-01-19T12:23:16;99567.47;;;2.22;85.18
75312;BME280;63906;55.686;37.532;2023-01-19T12:28:30;99568.28;;;2.23;84.63
75312;BME280;63906;55.686;37.532;2023-01-19T12:33:38;99578.13;;;2.38;85.42
75312;BME280;63906;55.686;37.532;2023-01-19T12:49:12;99594.53;;;2.29;84.91
75312;BME280;63906;55.686;37.532;2023-01-19T12:54:35;99579.22;;;2.16;84.20
75312;BME280;63906;55.686;37.532;2023-01-19T12:59:36;99578.81;;;2.40;84.53
75312;BME280;63906;55.686;37.532;2023-01-19T13:04:38;99587.72;;;2.19;84.13
75312;BME280;63906;55.686;37.532;2023-01-19T13:09:39;99576.50;;;2.08;84.42
75312;BME280;63906;55.686;37.532;2023-01-19T13:14:42;99578.56;;;2.24;84.17
75312;BME280;63906;55.686;37.532;2023-01-19T13:19:46;99566.66;;;2.22;84.92
75312;BME280;63906;55.686;37.532;2023-01-19T13:25:12;99562.56;;;2.19;83.97
75312;BME280;63906;55.686;37.532;2023-01-19T13:30:23;99571.41;;;2.36;84.96
75312;BME280;63906;55.686;37.532;2023-01-19T13:35:26;99572.78;;;2.50;85.23
75312;BME280;63906;55.686;37.532;2023-01-19T13:40:37;99571.84;;;2.41;84.75
75312;BME280;63906;55.686;37.532;2023-01-19T13:45:47;99552.69;;;2.42;84.74
75312;BME280;63906;55.686;37.532;2023-01-19T13:51:01;99555.47;;;2.31;84.84
75312;BME280;63906;55.686;37.532;2023-01-19T13:56:19;99604.94;;;2.00;84.22
75312;BME280;63906;55.686;37.532;2023-01-19T14:01:21;99626.78;;;2.17;84.59
75312;BME280;63906;55.686;37.532;2023-01-19T14:06:31;99630.03;;;1.90;84.68
75312;BME280;63906;55.686;37.532;2023-01-19T14:11:32;99629.75;;;1.83;84.41
75312;BME280;63906;55.686;37.532;2023-01-19T14:16:33;99637.94;;;1.69;85.23
75312;BME280;63906;55.686;37.532;2023-01-19T14:21:39;99635.81;;;1.53;85.58
75312;BME280;63906;55.686;37.532;2023-01-19T14:26:51;99637.94;;;1.79;84.65
75312;BME280;63906;55.686;37.532;2023-01-19T14:42:25;99650.53;;;1.83;84.89
75312;BME280;63906;55.686;37.532;2023-01-19T14:47:31;99620.97;;;1.55;84.91
75312;BME280;63906;55.686;37.532;2023-01-19T14:52:39;99636.72;;;1.83;85.47
75312;BME280;63906;55.686;37.532;2023-01-19T14:57:41;99641.06;;;1.73;85.06
75312;BME280;63906;55.686;37.532;2023-01-19T15:02:42;99597.72;;;1.44;85.58
75312;BME280;63906;55.686;37.532;2023-01-19T15:07:44;99625.63;;;1.61;85.10
75312;BME280;63906;55.686;37.532;2023-01-19T15:12:47;99630.81;;;1.71;85.63
75312;BME280;63906;55.686;37.532;2023-01-19T15:17:49;99646.59;;;1.49;85.76
75312;BME280;63906;55.686;37.532;2023-01-19T15:22:49;99635.44;;;1.68;86.09
75312;BME280;63906;55.686;37.532;2023-01-19T15:27:51;99631.34;;;1.65;86.04
75312;BME280;63906;55.686;37.532;2023-01-19T15:32:52;99640.63;;;1.68;86.04
75312;BME280;63906;55.686;37.532;2023-01-19T15:37:52;99649.88;;;1.51;85.73
75312;BME280;63906;55.686;37.532;2023-01-19T15:42:53;99571.22;;;1.31;85.43
75312;BME280;63906;55.686;37.532;2023-01-19T15:47:54;99603.88;;;1.53;85.54
75312;BME280;63906;55.686;37.532;2023-01-19T15:52:54;99614.53;;;1.59;85.44
75312;BME280;63906;55.686;37.532;2023-01-19T15:57:55;99612.94;;;1.78;85.59
75312;BME280;63906;55.686;37.532;2023-01-19T16:03:02;99593.41;;;1.64;85.85
75312;BME280;63906;55.686;37.532;2023-01-19T16:08:03;99591.50;;;1.76;85.83
75312;BME280;63906;55.686;37.532;2023-01-19T16:13:03;99587.09;;;1.67;85.14
75312;BME280;63906;55.686;37.532;2023-01-19T16:18:04;99549.53;;;1.51;85.52
75312;BME280;63906;55.686;37.532;2023-01-19T16:23:05;99554.91;;;1.79;85.42
75312;BME280;63906;55.686;37.532;2023-01-19T16:28:05;99519.66;;;1.67;86.15
75312;BME280;63906;55.686;37.532;2023-01-19T16:33:07;99544.47;;;1.40;85.95
75312;BME280;63906;55.686;37.532;2023-01-19T16:38:08;99549.50;;;1.32;86.19
75312;BME280;63906;55.686;37.532;2023-01-19T16:43:08;99572.31;;;1.38;86.48
75312;BME280;63906;55.686;37.532;2023-01-19T16:48:11;99555.28;;;1.65;85.85
75312;BME280;63906;55.686;37.532;2023-01-19T16:53:12;99553.75;;;1.43;85.91
75312;BME280;63906;55.686;37.532;2023-01-19T16:58:12;99536.00;;;1.38;85.88
75312;BME280;63906;55.686;37.532;2023-01-19T17:03:13;99542.78;;;1.29;86.70
75312;BME280;63906;55.686;37.532;2023-01-19T17:08:14;99558.28;;;1.50;85.80
75312;BME280;63906;55.686;37.532;2023-01-19T17:13:14;99549.16;;;1.56;86.11
75312;BME280;63906;55.686;37.532;2023-01-19T17:18:15;99535.47;;;1.44;86.50
75312;BME280;63906;55.686;37.532;2023-01-19T17:23:15;99550.66;;;1.58;86.26
75312;BME280;63906;55.686;37.532;2023-01-19T17:28:16;99523.03;;;1.38;86.78
75312;BME280;63906;55.686;37.532;2023-01-19T17:33:17;99542.41;;;1.34;86.41
75312;BME280;63906;55.686;37.532;2023-01-19T17:38:18;99539.03;;;1.43;86.91
75312;BME280;63906;55.686;37.532;2023-01-19T17:43:18;99562.41;;;1.63;86.89
75312;BME280;63906;55.686;37.532;2023-01-19T17:48:19;99526.56;;;1.27;86.58
75312;BME280;63906;55.686;37.532;2023-01-19T17:53:20;99525.75;;;1.27;86.36
75312;BME280;63906;55.686;37.532;2023-01-19T17:58:20;99531.91;;;1.45;86.54
75312;BME280;63906;55.686;37.532;2023-01-19T18:03:23;99543.91;;;1.37;86.66
75312;BME280;63906;55.686;37.532;2023-01-19T18:08:27;99518.63;;;1.29;86.55
75312;BME280;63906;55.686;37.532;2023-01-19T18:13:28;99492.03;;;1.27;86.38
75312;BME280;63906;55.686;37.532;2023-01-19T18:18:35;99555.59;;;1.61;86.07
75312;BME280;63906;55.686;37.532;2023-01-19T18:23:36;99545.84;;;1.44;86.80
75312;BME280;63906;55.686;37.532;2023-01-19T18:28:37;99520.28;;;1.30;87.06
75312;BME280;63906;55.686;37.532;2023-01-19T18:38:56;99450.28;;;1.30;86.56
75312;BME280;63906;55.686;37.532;2023-01-19T18:43:59;99440.28;;;1.16;86.58
75312;BME280;63906;55.686;37.532;2023-01-19T18:49:02;99474.88;;;1.45;86.25
75312;BME280;63906;55.686;37.532;2023-01-19T18:54:03;99500.69;;;1.66;86.18
75312;BME280;63906;55.686;37.532;2023-01-19T18:59:04;99475.41;;;1.58;86.33
75312;BME280;63906;55.686;37.532;2023-01-19T19:04:05;99465.56;;;1.43;86.48
75312;BME280;63906;55.686;37.532;2023-01-19T19:09:12;99436.06;;;1.15;86.21
75312;BME280;63906;55.686;37.532;2023-01-19T19:14:24;99453.56;;;1.32;86.24
75312;BME280;63906;55.686;37.532;2023-01-19T19:20:07;99475.00;;;1.44;86.16
75312;BME280;63906;55.686;37.532;2023-01-19T19:25:08;99482.75;;;1.34;86.61
75312;BME280;63906;55.686;37.532;2023-01-19T19:30:11;99496.69;;;1.33;86.45
75312;BME280;63906;55.686;37.532;2023-01-19T19:35:12;99499.97;;;1.35;86.58
75312;BME280;63906;55.686;37.532;2023-01-19T19:40:14;99501.59;;;1.36;86.55
75312;BME280;63906;55.686;37.532;2023-01-19T19:45:17;99504.63;;;1.60;86.74
75312;BME280;63906;55.686;37.532;2023-01-19T19:50:18;99508.19;;;1.59;86.33
75312;BME280;63906;55.686;37.532;2023-01-19T19:55:19;99507.09;;;1.52;86.08
75312;BME280;63906;55.686;37.532;2023-01-19T20:00:20;99516.78;;;1.50;86.56
75312;BME280;63906;55.686;37.532;2023-01-19T20:05:23;99443.03;;;1.14;85.97
75312;BME280;63906;55.686;37.532;2023-01-19T20:10:29;99461.13;;;0.95;86.50
75312;BME280;63906;55.686;37.532;2023-01-19T20:15:34;99441.13;;;1.26;86.60
75312;BME280;63906;55.686;37.532;2023-01-19T20:20:36;99468.31;;;1.41;86.27
75312;BME280;63906;55.686;37.532;2023-01-19T20:25:38;99455.75;;;1.27;87.06
75312;BME280;63906;55.686;37.532;2023-01-19T20:30:40;99424.75;;;1.35;86.47
75312;BME280;63906;55.686;37.532;2023-01-19T20:35:41;99430.91;;;1.34;86.58
75312;BME280;63906;55.686;37.532;2023-01-19T20:40:42;99484.41;;;1.54;86.80
75312;BME280;63906;55.686;37.532;2023-01-19T20:46:09;99452.91;;;1.69;86.48
75312;BME280;63906;55.686;37.532;2023-01-19T20:51:29;99455.47;;;1.40;86.46
75312;BME280;63906;55.686;37.532;2023-01-19T20:56:30;99465.31;;;1.55;86.15
75312;BME280;63906;55.686;37.532;2023-01-19T21:01:31;99500.81;;;1.65;86.62
75312;BME280;63906;55.686;37.532;2023-01-19T21:06:42;99489.06;;;1.80;85.98
75312;BME280;63906;55.686;37.532;2023-01-19T21:11:43;99489.91;;;2.00;86.21
75312;BME280;63906;55.686;37.532;2023-01-19T21:16:45;99485.25;;;1.94;86.07
75312;BME280;63906;55.686;37.532;2023-01-19T21:21:48;99452.34;;;1.55;85.92
75312;BME280;63906;55.686;37.532;2023-01-19T21:26:50;99440.75;;;1.59;86.13
75312;BME280;63906;55.686;37.532;2023-01-19T21:31:51;99464.78;;;1.61;85.49
75312;BME280;63906;55.686;37.532;2023-01-19T21:36:56;99428.03;;;1.66;85.43
75312;BME280;63906;55.686;37.532;2023-01-19T21:41:56;99461.38;;;1.80;85.27
75312;BME280;63906;55.686;37.532;2023-01-19T21:46:57;99423.53;;;1.58;84.95
75312;BME280;63906;55.686;37.532;2023-01-19T21:51:57;99443.19;;;1.80;85.41
75312;BME280;63906;55.686;37.532;2023-01-19T21:56:58;99435.38;;;1.90;85.44
75312;BME280;63906;55.686;37.532;2023-01-19T22:02:00;99455.75;;;1.95;84.88
75312;BME280;63906;55.686;37.532;2023-01-19T22:07:00;99473.91;;;1.95;85.36
75312;BME280;63906;55.686;37.532;2023-01-19T22:12:01;99468.84;;;2.12;85.43
75312;BME280;63906;55.686;37.532;2023-01-19T22:17:02;99476.75;;;2.21;84.99
75312;BME280;63906;55.686;37.532;2023-01-19T22:22:04;99481.94;;;2.11;85.00
75312;BME280;63906;55.686;37.532;2023-01-19T22:27:04;99451.06;;;1.98;84.73
75312;BME280;63906;55.686;37.532;2023-01-19T22:32:05;99470.88;;;2.19;84.76
75312;BME280;63906;55.686;37.532;2023-01-19T22:37:05;99428.16;;;1.94;84.23
75312;BME280;63906;55.686;37.532;2023-01-19T22:42:06;99462.13;;;2.20;84.49
75312;BME280;63906;55.686;37.532;2023-01-19T22:47:07;99487.38;;;2.37;84.78
75312;BME280;63906;55.686;37.532;2023-01-19T22:52:08;99491.47;;;2.30;84.52
75312;BME280;63906;55.686;37.532;2023-01-19T22:57:08;99475.09;;;2.20;83.85
75312;BME280;63906;55.686;37.532;2023-01-19T23:02:11;99495.59;;;2.23;83.68
75312;BME280;63906;55.686;37.532;2023-01-19T23:07:12;99482.47;;;2.24;83.98
75312;BME280;63906;55.686;37.532;2023-01-19T23:12:12;99505.34;;;2.58;83.77
75312;BME280;63906;55.686;37.532;2023-01-19T23:17:13;99494.97;;;2.48;83.53
75312;BME280;63906;55.686;37.532;2023-01-19T23:22:13;99496.19;;;2.63;84.11
75312;BME280;63906;55.686;37.532;2023-01-19T23:27:14;99469.06;;;2.29;83.76
75312;BME280;63906;55.686;37.532;2023-01-19T23:32:14;99490.19;;;2.53;83.56
75312;BME280;63906;55.686;37.532;2023-01-19T23:37:15;99487.81;;;2.69;83.52
75312;BME280;63906;55.686;37.532;2023-01-19T23:42:15;99479.94;;;2.42;83.50
75312;BME280;63906;55.686;37.532;2023-01-19T23:47:16;99481.31;;;2.46;83.63
75312;BME280;63906;55.686;37.532;2023-01-19T23:52:16;99460.59;;;2.36;83.98
75312;BME280;63906;55.686;37.532;2023-01-19T23:57:17;99496.06;;;2.55;83.83
